sensor_id;sensor_type;location;lat;lon;timestamp;temperature;humidity
13470;DHT22;6807;48.682;9.032;2023-07-13T00:00:52;17.90;99.90
13470;DHT22;6807;48.682;9.032;2023-07-13T00:03:21;17.80;99.90
13470;DHT22;6807;48.682;9.032;2023-07-13T00:05:57;17.70;99.90
13470;DHT22;6807;48.682;9.032;2023-07-13T00:08:24;17.60;99.90
13470;DHT22;6807;48.682;9.032;2023-07-13T00:10:52;17.60;99.90
13470;DHT22;6807;48.682;9.032;2023-07-13T00:13:20;17.80;99.90
13470;DHT22;6807;48.682;9.032;2023-07-13T00:15:46;17.70;99.90
13470;DHT22;6807;48.682;9.032;2023-07-13T00:18:14;17.70;99.90
13470;DHT22;6807;48.682;9.032;2023-07-13T00:20:42;17.70;99.90
13470;DHT22;6807;48.682;9.032;2023-07-13T00:23:09;17.60;99.90
13470;DHT22;6807;48.682;9.032;2023-07-13T00:25:36;17.60;99.90
13470;DHT22;6807;48.682;9.032;2023-07-13T00:28:03;17.60;99.90
13470;DHT22;6807;48.682;9.032;2023-07-13T00:30:30;17.50;99.90
13470;DHT22;6807;48.682;9.032;2023-07-13T00:32:57;17.40;99.90
13470;DHT22;6807;48.682;9.032;2023-07-13T00:35:27;17.30;99.90
13470;DHT22;6807;48.682;9.032;2023-07-13T00:37:58;17.20;99.90
13470;DHT22;6807;48.682;9.032;2023-07-13T00:40:25;17.00;99.90
13470;DHT22;6807;48.682;9.032;2023-07-13T00:42:52;17.00;99.90
13470;DHT22;6807;48.682;9.032;2023-07-13T00:48:21;17.00;99.90
13470;DHT22;6807;48.682;9.032;2023-07-13T00:50:51;17.00;99.90
13470;DHT22;6807;48.682;9.032;2023-07-13T00:53:20;16.90;99.90
13470;DHT22;6807;48.682;9.032;2023-07-13T00:55:48;17.00;99.90
13470;DHT22;6807;48.682;9.032;2023-07-13T00:58:17;16.90;99.90
13470;DHT22;6807;48.682;9.032;2023-07-13T01:00:44;16.80;99.90
13470;DHT22;6807;48.682;9.032;2023-07-13T01:03:13;16.70;99.90
13470;DHT22;6807;48.682;9.032;2023-07-13T01:05:41;16.70;99.90
13470;DHT22;6807;48.682;9.032;2023-07-13T01:08:08;16.60;99.90
13470;DHT22;6807;48.682;9.032;2023-07-13T01:10:36;16.70;99.90
13470;DHT22;6807;48.682;9.032;2023-07-13T01:13:05;16.60;99.90
13470;DHT22;6807;48.682;9.032;2023-07-13T01:15:35;16.70;99.90
13470;DHT22;6807;48.682;9.032;2023-07-13T01:18:03;16.80;99.90
13470;DHT22;6807;48.682;9.032;2023-07-13T01:20:30;16.80;99.90
13470;DHT22;6807;48.682;9.032;2023-07-13T01:23:04;16.90;99.90
13470;DHT22;6807;48.682;9.032;2023-07-13T01:25:32;16.90;99.90
13470;DHT22;6807;48.682;9.032;2023-07-13T01:27:59;17.00;99.90
13470;DHT22;6807;48.682;9.032;2023-07-13T01:30:26;17.00;99.90
13470;DHT22;6807;48.682;9.032;2023-07-13T01:32:53;16.90;99.90
13470;DHT22;6807;48.682;9.032;2023-07-13T01:35:20;16.80;99.90
13470;DHT22;6807;48.682;9.032;2023-07-13T01:37:47;16.70;99.90
13470;DHT22;6807;48.682;9.032;2023-07-13T01:40:15;16.70;99.90
13470;DHT22;6807;48.682;9.032;2023-07-13T01:42:42;16.60;99.90
13470;DHT22;6807;48.682;9.032;2023-07-13T01:45:10;16.60;99.90
13470;DHT22;6807;48.682;9.032;2023-07-13T01:47:37;16.60;99.90
13470;DHT22;6807;48.682;9.032;2023-07-13T01:50:04;16.60;99.90
13470;DHT22;6807;48.682;9.032;2023-07-13T01:52:31;16.40;99.90
13470;DHT22;6807;48.682;9.032;2023-07-13T01:54:58;16.40;99.90
13470;DHT22;6807;48.682;9.032;2023-07-13T01:57:27;16.30;99.90
13470;DHT22;6807;48.682;9.032;2023-07-13T01:59:54;16.10;99.90
13470;DHT22;6807;48.682;9.032;2023-07-13T02:02:21;14.90;99.90
13470;DHT22;6807;48.682;9.032;2023-07-13T02:04:47;16.10;99.90
13470;DHT22;6807;48.682;9.032;2023-07-13T02:07:14;16.00;99.90
13470;DHT22;6807;48.682;9.032;2023-07-13T02:09:41;16.00;99.90
13470;DHT22;6807;48.682;9.032;2023-07-13T02:12:09;16.00;99.90
13470;DHT22;6807;48.682;9.032;2023-07-13T02:14:37;15.90;99.90
13470;DHT22;6807;48.682;9.032;2023-07-13T02:17:04;15.80;99.90
13470;DHT22;6807;48.682;9.032;2023-07-13T02:19:31;15.80;99.90
13470;DHT22;6807;48.682;9.032;2023-07-13T02:21:58;15.60;99.90
13470;DHT22;6807;48.682;9.032;2023-07-13T02:24:25;15.60;99.90
13470;DHT22;6807;48.682;9.032;2023-07-13T02:26:53;15.60;99.90
13470;DHT22;6807;48.682;9.032;2023-07-13T02:29:20;15.50;1.00
13470;DHT22;6807;48.682;9.032;2023-07-13T02:31:48;15.40;1.00
13470;DHT22;6807;48.682;9.032;2023-07-13T02:34:15;15.30;1.00
13470;DHT22;6807;48.682;9.032;2023-07-13T02:36:42;15.20;1.00
13470;DHT22;6807;48.682;9.032;2023-07-13T02:39:11;15.20;1.00
13470;DHT22;6807;48.682;9.032;2023-07-13T02:41:39;15.10;1.00
13470;DHT22;6807;48.682;9.032;2023-07-13T02:44:06;15.00;1.00
13470;DHT22;6807;48.682;9.032;2023-07-13T02:46:35;15.00;1.00
13470;DHT22;6807;48.682;9.032;2023-07-13T02:49:04;14.90;1.00
13470;DHT22;6807;48.682;9.032;2023-07-13T02:51:31;14.80;1.00
13470;DHT22;6807;48.682;9.032;2023-07-13T02:53:59;14.80;1.00
13470;DHT22;6807;48.682;9.032;2023-07-13T02:56:28;14.90;74.20
13470;DHT22;6807;48.682;9.032;2023-07-13T02:58:56;14.80;83.10
13470;DHT22;6807;48.682;9.032;2023-07-13T03:01:23;14.80;99.90
13470;DHT22;6807;48.682;9.032;2023-07-13T03:03:50;14.80;99.90
13470;DHT22;6807;48.682;9.032;2023-07-13T03:06:19;14.90;99.90
13470;DHT22;6807;48.682;9.032;2023-07-13T03:08:47;14.90;99.90
13470;DHT22;6807;48.682;9.032;2023-07-13T03:11:18;14.80;99.40
13470;DHT22;6807;48.682;9.032;2023-07-13T03:13:45;14.70;62.20
13470;DHT22;6807;48.682;9.032;2023-07-13T03:16:12;14.70;99.90
13470;DHT22;6807;48.682;9.032;2023-07-13T03:18:41;14.70;99.90
13470;DHT22;6807;48.682;9.032;2023-07-13T03:21:08;14.80;99.90
13470;DHT22;6807;48.682;9.032;2023-07-13T03:23:37;14.80;99.90
13470;DHT22;6807;48.682;9.032;2023-07-13T03:26:06;15.00;99.90
13470;DHT22;6807;48.682;9.032;2023-07-13T03:28:33;14.90;99.90
13470;DHT22;6807;48.682;9.032;2023-07-13T03:31:02;14.80;99.90
13470;DHT22;6807;48.682;9.032;2023-07-13T03:33:30;14.90;99.90
13470;DHT22;6807;48.682;9.032;2023-07-13T03:35:57;14.80;99.90
13470;DHT22;6807;48.682;9.032;2023-07-13T03:38:24;14.90;99.90
13470;DHT22;6807;48.682;9.032;2023-07-13T03:40:53;15.00;99.90
13470;DHT22;6807;48.682;9.032;2023-07-13T03:43:20;15.00;99.90
13470;DHT22;6807;48.682;9.032;2023-07-13T03:45:47;15.10;99.90
13470;DHT22;6807;48.682;9.032;2023-07-13T03:48:14;15.10;99.90
13470;DHT22;6807;48.682;9.032;2023-07-13T03:50:41;15.10;99.90
13470;DHT22;6807;48.682;9.032;2023-07-13T03:53:08;15.10;99.90
13470;DHT22;6807;48.682;9.032;2023-07-13T03:55:35;15.10;99.90
13470;DHT22;6807;48.682;9.032;2023-07-13T03:58:26;15.10;99.90
13470;DHT22;6807;48.682;9.032;2023-07-13T04:00:53;15.10;99.90
13470;DHT22;6807;48.682;9.032;2023-07-13T04:03:21;15.10;99.90
13470;DHT22;6807;48.682;9.032;2023-07-13T04:05:48;15.20;99.90
13470;DHT22;6807;48.682;9.032;2023-07-13T04:08:15;15.30;99.90
13470;DHT22;6807;48.682;9.032;2023-07-13T04:10:42;15.30;99.90
13470;DHT22;6807;48.682;9.032;2023-07-13T04:13:09;15.30;98.40
13470;DHT22;6807;48.682;9.032;2023-07-13T04:15:39;15.40;99.90
13470;DHT22;6807;48.682;9.032;2023-07-13T04:18:06;15.50;50.10
13470;DHT22;6807;48.682;9.032;2023-07-13T04:20:33;15.60;10.60
13470;DHT22;6807;48.682;9.032;2023-07-13T04:23:00;15.60;11.00
13470;DHT22;6807;48.682;9.032;2023-07-13T04:25:27;15.50;1.00
13470;DHT22;6807;48.682;9.032;2023-07-13T04:27:54;15.50;77.60
13470;DHT22;6807;48.682;9.032;2023-07-13T04:30:21;15.60;99.90
13470;DHT22;6807;48.682;9.032;2023-07-13T04:32:51;15.50;91.00
13470;DHT22;6807;48.682;9.032;2023-07-13T04:35:19;15.40;90.20
13470;DHT22;6807;48.682;9.032;2023-07-13T04:37:48;15.40;64.80
13470;DHT22;6807;48.682;9.032;2023-07-13T04:40:16;15.40;99.90
13470;DHT22;6807;48.682;9.032;2023-07-13T04:42:43;15.50;99.90
13470;DHT22;6807;48.682;9.032;2023-07-13T04:45:11;15.50;99.90
13470;DHT22;6807;48.682;9.032;2023-07-13T04:47:38;15.50;99.90
13470;DHT22;6807;48.682;9.032;2023-07-13T04:50:07;15.50;99.90
13470;DHT22;6807;48.682;9.032;2023-07-13T04:52:36;15.50;73.90
13470;DHT22;6807;48.682;9.032;2023-07-13T04:55:04;15.50;54.90
13470;DHT22;6807;48.682;9.032;2023-07-13T04:57:31;15.50;55.10
13470;DHT22;6807;48.682;9.032;2023-07-13T04:59:58;15.60;99.90
13470;DHT22;6807;48.682;9.032;2023-07-13T05:02:26;15.70;99.90
13470;DHT22;6807;48.682;9.032;2023-07-13T05:04:53;15.80;99.90
13470;DHT22;6807;48.682;9.032;2023-07-13T05:07:22;15.90;99.90
13470;DHT22;6807;48.682;9.032;2023-07-13T05:09:49;16.00;99.90
13470;DHT22;6807;48.682;9.032;2023-07-13T05:12:16;16.10;1.00
13470;DHT22;6807;48.682;9.032;2023-07-13T05:14:43;16.40;1.00
13470;DHT22;6807;48.682;9.032;2023-07-13T05:17:10;16.50;14.30
13470;DHT22;6807;48.682;9.032;2023-07-13T05:19:37;16.70;1.00
13470;DHT22;6807;48.682;9.032;2023-07-13T05:22:04;16.90;1.00
13470;DHT22;6807;48.682;9.032;2023-07-13T05:24:33;17.00;1.00
13470;DHT22;6807;48.682;9.032;2023-07-13T05:27:00;17.00;1.00
13470;DHT22;6807;48.682;9.032;2023-07-13T05:29:27;17.00;1.00
13470;DHT22;6807;48.682;9.032;2023-07-13T05:31:54;17.10;1.00
13470;DHT22;6807;48.682;9.032;2023-07-13T05:34:21;17.10;1.00
13470;DHT22;6807;48.682;9.032;2023-07-13T05:36:48;17.20;1.00
13470;DHT22;6807;48.682;9.032;2023-07-13T05:39:16;17.20;1.00
13470;DHT22;6807;48.682;9.032;2023-07-13T05:41:44;17.20;99.90
13470;DHT22;6807;48.682;9.032;2023-07-13T05:44:11;17.20;1.00
13470;DHT22;6807;48.682;9.032;2023-07-13T05:46:38;17.20;99.90
13470;DHT22;6807;48.682;9.032;2023-07-13T05:49:05;17.30;99.90
13470;DHT22;6807;48.682;9.032;2023-07-13T05:51:32;17.30;99.90
13470;DHT22;6807;48.682;9.032;2023-07-13T05:53:59;17.30;99.90
13470;DHT22;6807;48.682;9.032;2023-07-13T05:56:26;17.30;99.90
13470;DHT22;6807;48.682;9.032;2023-07-13T05:58:54;17.30;99.90
13470;DHT22;6807;48.682;9.032;2023-07-13T06:01:21;17.40;99.90
13470;DHT22;6807;48.682;9.032;2023-07-13T06:03:49;17.50;99.90
13470;DHT22;6807;48.682;9.032;2023-07-13T06:06:16;17.70;99.90
13470;DHT22;6807;48.682;9.032;2023-07-13T06:08:43;18.00;99.90
13470;DHT22;6807;48.682;9.032;2023-07-13T06:11:14;18.20;99.90
13470;DHT22;6807;48.682;9.032;2023-07-13T06:13:41;18.20;99.90
13470;DHT22;6807;48.682;9.032;2023-07-13T06:16:10;18.30;99.90
13470;DHT22;6807;48.682;9.032;2023-07-13T06:18:38;18.40;67.90
13470;DHT22;6807;48.682;9.032;2023-07-13T06:21:07;18.50;87.00
13470;DHT22;6807;48.682;9.032;2023-07-13T06:23:34;18.90;99.90
13470;DHT22;6807;48.682;9.032;2023-07-13T06:26:01;19.10;99.90
13470;DHT22;6807;48.682;9.032;2023-07-13T06:28:28;19.40;94.00
13470;DHT22;6807;48.682;9.032;2023-07-13T06:30:55;19.50;78.30
13470;DHT22;6807;48.682;9.032;2023-07-13T06:33:24;19.80;65.50
13470;DHT22;6807;48.682;9.032;2023-07-13T06:35:51;19.90;23.70
13470;DHT22;6807;48.682;9.032;2023-07-13T06:38:18;19.80;1.00
13470;DHT22;6807;48.682;9.032;2023-07-13T06:40:44;19.90;1.00
13470;DHT22;6807;48.682;9.032;2023-07-13T06:43:11;20.00;1.00
13470;DHT22;6807;48.682;9.032;2023-07-13T06:45:41;20.00;1.00
13470;DHT22;6807;48.682;9.032;2023-07-13T06:48:08;20.10;1.00
13470;DHT22;6807;48.682;9.032;2023-07-13T06:50:37;20.20;39.00
13470;DHT22;6807;48.682;9.032;2023-07-13T06:53:03;20.30;21.80
13470;DHT22;6807;48.682;9.032;2023-07-13T06:55:30;20.40;13.40
13470;DHT22;6807;48.682;9.032;2023-07-13T06:57:57;20.60;1.00
13470;DHT22;6807;48.682;9.032;2023-07-13T07:00:24;20.90;1.00
13470;DHT22;6807;48.682;9.032;2023-07-13T07:02:51;21.00;1.00
13470;DHT22;6807;48.682;9.032;2023-07-13T07:05:18;21.20;1.00
13470;DHT22;6807;48.682;9.032;2023-07-13T07:07:50;21.60;1.00
13470;DHT22;6807;48.682;9.032;2023-07-13T07:10:17;21.90;1.00
13470;DHT22;6807;48.682;9.032;2023-07-13T07:12:44;21.70;1.00
13470;DHT22;6807;48.682;9.032;2023-07-13T07:15:12;21.90;1.00
13470;DHT22;6807;48.682;9.032;2023-07-13T07:17:39;22.20;1.00
13470;DHT22;6807;48.682;9.032;2023-07-13T07:20:07;22.50;1.00
13470;DHT22;6807;48.682;9.032;2023-07-13T07:22:34;22.50;1.00
13470;DHT22;6807;48.682;9.032;2023-07-13T07:25:02;22.80;1.00
13470;DHT22;6807;48.682;9.032;2023-07-13T07:27:29;23.30;1.00
13470;DHT22;6807;48.682;9.032;2023-07-13T07:29:57;23.50;1.00
13470;DHT22;6807;48.682;9.032;2023-07-13T07:32:24;23.70;1.00
13470;DHT22;6807;48.682;9.032;2023-07-13T07:34:51;23.70;1.00
13470;DHT22;6807;48.682;9.032;2023-07-13T07:37:18;23.40;1.00
13470;DHT22;6807;48.682;9.032;2023-07-13T07:39:45;23.50;1.00
13470;DHT22;6807;48.682;9.032;2023-07-13T07:42:14;23.30;1.00
13470;DHT22;6807;48.682;9.032;2023-07-13T07:44:41;23.70;1.00
13470;DHT22;6807;48.682;9.032;2023-07-13T07:47:08;24.20;1.00
13470;DHT22;6807;48.682;9.032;2023-07-13T07:49:35;24.50;1.00
13470;DHT22;6807;48.682;9.032;2023-07-13T07:52:03;24.60;1.00
13470;DHT22;6807;48.682;9.032;2023-07-13T07:54:30;24.80;1.00
13470;DHT22;6807;48.682;9.032;2023-07-13T07:56:57;25.20;1.00
13470;DHT22;6807;48.682;9.032;2023-07-13T07:59:25;25.30;1.00
13470;DHT22;6807;48.682;9.032;2023-07-13T08:01:52;25.50;1.00
13470;DHT22;6807;48.682;9.032;2023-07-13T08:04:19;25.50;1.00
13470;DHT22;6807;48.682;9.032;2023-07-13T08:06:46;25.50;99.90
13470;DHT22;6807;48.682;9.032;2023-07-13T08:09:12;25.50;99.90
13470;DHT22;6807;48.682;9.032;2023-07-13T08:11:39;25.80;99.90
13470;DHT22;6807;48.682;9.032;2023-07-13T08:14:06;26.20;99.90
13470;DHT22;6807;48.682;9.032;2023-07-13T08:16:36;26.70;99.90
13470;DHT22;6807;48.682;9.032;2023-07-13T08:19:03;26.30;99.90
13470;DHT22;6807;48.682;9.032;2023-07-13T08:21:31;26.10;99.90
13470;DHT22;6807;48.682;9.032;2023-07-13T08:23:58;26.10;99.90
13470;DHT22;6807;48.682;9.032;2023-07-13T08:26:25;26.10;99.90
13470;DHT22;6807;48.682;9.032;2023-07-13T08:28:52;26.70;99.90
13470;DHT22;6807;48.682;9.032;2023-07-13T08:31:19;27.10;99.90
13470;DHT22;6807;48.682;9.032;2023-07-13T08:33:47;27.50;99.90
13470;DHT22;6807;48.682;9.032;2023-07-13T08:36:14;27.60;99.90
13470;DHT22;6807;48.682;9.032;2023-07-13T08:38:41;27.60;99.90
13470;DHT22;6807;48.682;9.032;2023-07-13T08:41:13;27.60;99.90
13470;DHT22;6807;48.682;9.032;2023-07-13T08:43:41;27.70;99.90
13470;DHT22;6807;48.682;9.032;2023-07-13T08:46:13;27.30;99.90
13470;DHT22;6807;48.682;9.032;2023-07-13T08:48:47;27.30;99.90
13470;DHT22;6807;48.682;9.032;2023-07-13T08:51:36;26.70;99.90
13470;DHT22;6807;48.682;9.032;2023-07-13T08:54:12;27.10;99.90
13470;DHT22;6807;48.682;9.032;2023-07-13T08:56:45;27.40;99.90
13470;DHT22;6807;48.682;9.032;2023-07-13T08:59:15;28.20;99.90
13470;DHT22;6807;48.682;9.032;2023-07-13T09:01:56;28.00;99.90
13470;DHT22;6807;48.682;9.032;2023-07-13T09:04:34;27.70;99.90
13470;DHT22;6807;48.682;9.032;2023-07-13T09:07:07;28.80;99.90
13470;DHT22;6807;48.682;9.032;2023-07-13T09:09:48;29.80;99.90
13470;DHT22;6807;48.682;9.032;2023-07-13T09:12:25;30.70;99.90
13470;DHT22;6807;48.682;9.032;2023-07-13T09:14:56;30.10;95.10
13470;DHT22;6807;48.682;9.032;2023-07-13T09:17:27;30.10;98.70
13470;DHT22;6807;48.682;9.032;2023-07-13T09:20:00;29.20;99.90
13470;DHT22;6807;48.682;9.032;2023-07-13T09:22:32;27.70;99.90
13470;DHT22;6807;48.682;9.032;2023-07-13T09:25:06;28.00;99.90
13470;DHT22;6807;48.682;9.032;2023-07-13T09:27:43;28.50;96.30
13470;DHT22;6807;48.682;9.032;2023-07-13T09:30:23;28.60;99.90
13470;DHT22;6807;48.682;9.032;2023-07-13T09:32:53;29.50;99.90
13470;DHT22;6807;48.682;9.032;2023-07-13T09:35:24;30.10;99.90
13470;DHT22;6807;48.682;9.032;2023-07-13T09:37:58;28.80;93.40
13470;DHT22;6807;48.682;9.032;2023-07-13T09:40:30;26.90;99.90
13470;DHT22;6807;48.682;9.032;2023-07-13T09:42:59;26.40;99.90
13470;DHT22;6807;48.682;9.032;2023-07-13T09:45:28;26.70;99.90
13470;DHT22;6807;48.682;9.032;2023-07-13T09:48:05;26.30;99.90
13470;DHT22;6807;48.682;9.032;2023-07-13T09:50:34;26.80;99.90
13470;DHT22;6807;48.682;9.032;2023-07-13T09:53:02;27.80;99.90
13470;DHT22;6807;48.682;9.032;2023-07-13T09:55:32;28.70;99.90
13470;DHT22;6807;48.682;9.032;2023-07-13T09:58:04;29.30;99.90
13470;DHT22;6807;48.682;9.032;2023-07-13T10:00:32;29.40;99.90
13470;DHT22;6807;48.682;9.032;2023-07-13T10:03:04;28.60;99.90
13470;DHT22;6807;48.682;9.032;2023-07-13T10:05:40;27.80;99.90
13470;DHT22;6807;48.682;9.032;2023-07-13T10:08:20;27.20;99.90
13470;DHT22;6807;48.682;9.032;2023-07-13T10:10:52;26.80;99.90
13470;DHT22;6807;48.682;9.032;2023-07-13T10:13:26;26.60;99.90
13470;DHT22;6807;48.682;9.032;2023-07-13T10:15:55;26.00;99.90
13470;DHT22;6807;48.682;9.032;2023-07-13T10:18:23;26.10;99.90
13470;DHT22;6807;48.682;9.032;2023-07-13T10:20:54;26.90;99.90
13470;DHT22;6807;48.682;9.032;2023-07-13T10:23:31;27.90;99.90
13470;DHT22;6807;48.682;9.032;2023-07-13T10:25:59;29.00;99.90
13470;DHT22;6807;48.682;9.032;2023-07-13T10:28:30;29.60;99.90
13470;DHT22;6807;48.682;9.032;2023-07-13T10:31:00;30.40;99.90
13470;DHT22;6807;48.682;9.032;2023-07-13T10:33:28;30.10;93.90
13470;DHT22;6807;48.682;9.032;2023-07-13T10:36:03;29.60;99.90
13470;DHT22;6807;48.682;9.032;2023-07-13T10:38:32;29.40;99.90
13470;DHT22;6807;48.682;9.032;2023-07-13T10:41:02;29.30;81.30
13470;DHT22;6807;48.682;9.032;2023-07-13T10:43:33;29.10;90.80
13470;DHT22;6807;48.682;9.032;2023-07-13T10:46:04;28.20;67.50
13470;DHT22;6807;48.682;9.032;2023-07-13T10:48:33;27.80;99.90
13470;DHT22;6807;48.682;9.032;2023-07-13T10:51:05;27.60;96.50
13470;DHT22;6807;48.682;9.032;2023-07-13T10:53:34;28.50;99.90
13470;DHT22;6807;48.682;9.032;2023-07-13T10:56:03;29.70;99.90
13470;DHT22;6807;48.682;9.032;2023-07-13T10:58:36;30.70;91.30
13470;DHT22;6807;48.682;9.032;2023-07-13T11:01:07;30.00;76.40
13470;DHT22;6807;48.682;9.032;2023-07-13T11:03:37;30.20;62.20
13470;DHT22;6807;48.682;9.032;2023-07-13T11:06:09;30.70;84.80
13470;DHT22;6807;48.682;9.032;2023-07-13T11:08:38;30.20;99.90
13470;DHT22;6807;48.682;9.032;2023-07-13T11:11:36;28.90;91.30
13470;DHT22;6807;48.682;9.032;2023-07-13T11:14:04;27.60;67.50
13470;DHT22;6807;48.682;9.032;2023-07-13T11:16:46;26.60;95.50
13470;DHT22;6807;48.682;9.032;2023-07-13T11:19:37;25.70;77.60
13470;DHT22;6807;48.682;9.032;2023-07-13T11:22:25;25.30;90.60
13470;DHT22;6807;48.682;9.032;2023-07-13T11:25:25;25.30;95.90
13470;DHT22;6807;48.682;9.032;2023-07-13T11:28:06;26.70;99.90
13470;DHT22;6807;48.682;9.032;2023-07-13T11:30:39;27.00;99.90
13470;DHT22;6807;48.682;9.032;2023-07-13T11:33:16;28.70;99.90
13470;DHT22;6807;48.682;9.032;2023-07-13T11:35:49;28.70;95.20
13470;DHT22;6807;48.682;9.032;2023-07-13T11:38:21;28.10;99.90
13470;DHT22;6807;48.682;9.032;2023-07-13T11:40:51;27.50;99.90
13470;DHT22;6807;48.682;9.032;2023-07-13T11:43:20;27.20;99.90
13470;DHT22;6807;48.682;9.032;2023-07-13T11:45:49;29.60;99.90
13470;DHT22;6807;48.682;9.032;2023-07-13T11:48:21;30.20;99.90
13470;DHT22;6807;48.682;9.032;2023-07-13T11:50:51;32.10;99.90
13470;DHT22;6807;48.682;9.032;2023-07-13T11:53:21;32.60;54.90
13470;DHT22;6807;48.682;9.032;2023-07-13T11:55:49;31.70;7.50
13470;DHT22;6807;48.682;9.032;2023-07-13T11:58:21;29.80;1.00
13470;DHT22;6807;48.682;9.032;2023-07-13T12:00:49;28.40;1.00
13470;DHT22;6807;48.682;9.032;2023-07-13T12:03:21;27.20;19.80
13470;DHT22;6807;48.682;9.032;2023-07-13T12:05:57;26.80;72.60
13470;DHT22;6807;48.682;9.032;2023-07-13T12:08:27;29.10;73.40
13470;DHT22;6807;48.682;9.032;2023-07-13T12:10:59;30.30;48.50
13470;DHT22;6807;48.682;9.032;2023-07-13T12:13:27;30.10;58.00
13470;DHT22;6807;48.682;9.032;2023-07-13T12:15:56;31.30;52.00
13470;DHT22;6807;48.682;9.032;2023-07-13T12:18:29;32.90;1.00
13470;DHT22;6807;48.682;9.032;2023-07-13T12:20:58;34.30;1.00
13470;DHT22;6807;48.682;9.032;2023-07-13T12:23:31;33.60;1.00
13470;DHT22;6807;48.682;9.032;2023-07-13T12:26:01;32.10;1.00
13470;DHT22;6807;48.682;9.032;2023-07-13T12:28:33;31.50;1.00
13470;DHT22;6807;48.682;9.032;2023-07-13T12:31:04;32.40;1.00
13470;DHT22;6807;48.682;9.032;2023-07-13T12:33:32;32.20;1.00
13470;DHT22;6807;48.682;9.032;2023-07-13T12:36:01;32.70;1.00
13470;DHT22;6807;48.682;9.032;2023-07-13T12:38:32;33.40;1.00
13470;DHT22;6807;48.682;9.032;2023-07-13T12:40:59;32.80;1.00
13470;DHT22;6807;48.682;9.032;2023-07-13T12:43:33;32.80;1.00
13470;DHT22;6807;48.682;9.032;2023-07-13T12:46:04;33.30;1.00
13470;DHT22;6807;48.682;9.032;2023-07-13T12:48:38;32.10;1.00
13470;DHT22;6807;48.682;9.032;2023-07-13T12:51:10;32.30;1.00
13470;DHT22;6807;48.682;9.032;2023-07-13T12:53:41;30.30;1.00
13470;DHT22;6807;48.682;9.032;2023-07-13T12:56:16;31.80;1.00
13470;DHT22;6807;48.682;9.032;2023-07-13T12:58:45;32.70;1.00
13470;DHT22;6807;48.682;9.032;2023-07-13T13:01:20;31.60;1.00
13470;DHT22;6807;48.682;9.032;2023-07-13T13:03:50;31.10;1.00
13470;DHT22;6807;48.682;9.032;2023-07-13T13:06:23;31.20;1.00
13470;DHT22;6807;48.682;9.032;2023-07-13T13:08:53;30.10;1.00
13470;DHT22;6807;48.682;9.032;2023-07-13T13:11:22;29.00;1.00
13470;DHT22;6807;48.682;9.032;2023-07-13T13:13:49;28.40;54.50
13470;DHT22;6807;48.682;9.032;2023-07-13T13:16:20;27.90;1.00
13470;DHT22;6807;48.682;9.032;2023-07-13T13:18:48;29.50;93.70
13470;DHT22;6807;48.682;9.032;2023-07-13T13:21:16;30.30;1.00
13470;DHT22;6807;48.682;9.032;2023-07-13T13:23:43;30.00;1.00
13470;DHT22;6807;48.682;9.032;2023-07-13T13:26:14;30.70;1.00
13470;DHT22;6807;48.682;9.032;2023-07-13T13:28:42;30.30;1.00
13470;DHT22;6807;48.682;9.032;2023-07-13T13:31:10;29.50;1.00
13470;DHT22;6807;48.682;9.032;2023-07-13T13:33:39;29.00;1.00
13470;DHT22;6807;48.682;9.032;2023-07-13T13:36:14;29.20;1.00
13470;DHT22;6807;48.682;9.032;2023-07-13T13:38:43;30.30;1.00
13470;DHT22;6807;48.682;9.032;2023-07-13T13:41:11;30.50;1.00
13470;DHT22;6807;48.682;9.032;2023-07-13T13:43:40;29.70;1.00
13470;DHT22;6807;48.682;9.032;2023-07-13T13:46:15;29.30;1.00
13470;DHT22;6807;48.682;9.032;2023-07-13T13:48:43;30.60;1.00
13470;DHT22;6807;48.682;9.032;2023-07-13T13:51:15;30.50;1.00
13470;DHT22;6807;48.682;9.032;2023-07-13T13:53:43;30.50;1.00
13470;DHT22;6807;48.682;9.032;2023-07-13T13:56:11;30.50;1.00
13470;DHT22;6807;48.682;9.032;2023-07-13T13:58:39;30.40;1.00
13470;DHT22;6807;48.682;9.032;2023-07-13T14:01:12;30.60;1.00
13470;DHT22;6807;48.682;9.032;2023-07-13T14:03:40;30.40;1.00
13470;DHT22;6807;48.682;9.032;2023-07-13T14:06:10;30.50;1.00
13470;DHT22;6807;48.682;9.032;2023-07-13T14:08:37;31.10;1.00
13470;DHT22;6807;48.682;9.032;2023-07-13T14:11:05;31.00;1.00
13470;DHT22;6807;48.682;9.032;2023-07-13T14:13:36;31.50;1.00
13470;DHT22;6807;48.682;9.032;2023-07-13T14:16:10;30.90;1.00
13470;DHT22;6807;48.682;9.032;2023-07-13T14:18:37;29.70;1.00
13470;DHT22;6807;48.682;9.032;2023-07-13T14:21:11;28.90;1.00
13470;DHT22;6807;48.682;9.032;2023-07-13T14:23:39;29.40;1.00
13470;DHT22;6807;48.682;9.032;2023-07-13T14:26:10;29.70;1.00
13470;DHT22;6807;48.682;9.032;2023-07-13T14:28:40;28.90;1.00
13470;DHT22;6807;48.682;9.032;2023-07-13T14:31:09;27.90;1.00
13470;DHT22;6807;48.682;9.032;2023-07-13T14:33:36;27.30;1.00
13470;DHT22;6807;48.682;9.032;2023-07-13T14:36:05;26.50;1.00
13470;DHT22;6807;48.682;9.032;2023-07-13T14:38:36;26.60;1.00
13470;DHT22;6807;48.682;9.032;2023-07-13T14:41:03;27.50;1.00
13470;DHT22;6807;48.682;9.032;2023-07-13T14:43:30;29.20;1.00
13470;DHT22;6807;48.682;9.032;2023-07-13T14:45:57;29.70;1.00
13470;DHT22;6807;48.682;9.032;2023-07-13T14:48:26;29.00;1.00
13470;DHT22;6807;48.682;9.032;2023-07-13T14:50:55;28.50;1.00
13470;DHT22;6807;48.682;9.032;2023-07-13T14:53:22;28.90;1.00
13470;DHT22;6807;48.682;9.032;2023-07-13T14:55:49;30.00;1.00
13470;DHT22;6807;48.682;9.032;2023-07-13T14:58:16;30.80;1.00
13470;DHT22;6807;48.682;9.032;2023-07-13T15:00:43;31.00;1.00
13470;DHT22;6807;48.682;9.032;2023-07-13T15:03:17;31.00;1.00
13470;DHT22;6807;48.682;9.032;2023-07-13T15:05:46;30.50;1.00
13470;DHT22;6807;48.682;9.032;2023-07-13T15:08:15;30.60;1.00
13470;DHT22;6807;48.682;9.032;2023-07-13T15:10:42;30.70;1.00
13470;DHT22;6807;48.682;9.032;2023-07-13T15:13:16;30.80;1.00
13470;DHT22;6807;48.682;9.032;2023-07-13T15:15:46;30.60;1.00
13470;DHT22;6807;48.682;9.032;2023-07-13T15:18:15;29.90;1.00
13470;DHT22;6807;48.682;9.032;2023-07-13T15:20:45;29.10;1.00
13470;DHT22;6807;48.682;9.032;2023-07-13T15:23:14;28.50;1.00
13470;DHT22;6807;48.682;9.032;2023-07-13T15:25:42;28.80;1.00
13470;DHT22;6807;48.682;9.032;2023-07-13T15:28:10;28.60;1.00
13470;DHT22;6807;48.682;9.032;2023-07-13T15:30:41;27.80;1.00
13470;DHT22;6807;48.682;9.032;2023-07-13T15:33:12;27.70;1.00
13470;DHT22;6807;48.682;9.032;2023-07-13T15:35:43;27.70;1.00
13470;DHT22;6807;48.682;9.032;2023-07-13T15:38:17;27.90;1.00
13470;DHT22;6807;48.682;9.032;2023-07-13T15:40:44;28.20;1.00
13470;DHT22;6807;48.682;9.032;2023-07-13T15:43:11;28.30;1.00
13470;DHT22;6807;48.682;9.032;2023-07-13T15:45:40;28.20;1.00
13470;DHT22;6807;48.682;9.032;2023-07-13T15:48:17;27.70;1.00
13470;DHT22;6807;48.682;9.032;2023-07-13T15:50:46;27.70;1.00
13470;DHT22;6807;48.682;9.032;2023-07-13T15:53:20;27.70;1.00
13470;DHT22;6807;48.682;9.032;2023-07-13T15:55:48;26.70;1.00
13470;DHT22;6807;48.682;9.032;2023-07-13T15:58:16;27.50;1.00
13470;DHT22;6807;48.682;9.032;2023-07-13T16:00:43;27.30;1.00
13470;DHT22;6807;48.682;9.032;2023-07-13T16:03:11;27.20;1.00
13470;DHT22;6807;48.682;9.032;2023-07-13T16:05:40;27.00;1.00
13470;DHT22;6807;48.682;9.032;2023-07-13T16:08:16;26.50;1.00